Time;durP1;ratioP1;P1;durP2;ratioP2;P2;SDS_P1;SDS_P2;PMS_P1;PMS_P2;Temp;Humidity;BMP_temperature;BMP_pressure;BME280_temperature;BME280_humidity;BME280_pressure;Samples;Min_cycle;Max_cycle;Signal;HPM_P1;HPM_P2
2022/12/05 00:00:52;;;;;;;41.55;21.85;;;;;;;4.18;100.00;101765.13;4980532;28;20043;-64
2022/12/05 00:03:19;;;;;;;37.10;19.60;;;;;;;4.24;100.00;101761.38;4969582;28;20077;-64
2022/12/05 00:05:46;;;;;;;37.38;20.92;;;;;;;4.23;100.00;101755.31;4980593;28;20069;-64
2022/12/05 00:08:12;;;;;;;43.10;22.80;;;;;;;4.26;100.00;101762.13;4973578;28;20054;-64
2022/12/05 00:10:39;;;;;;;41.33;22.67;;;;;;;4.32;100.00;101756.59;4974491;28;20105;-64
2022/12/05 00:13:06;;;;;;;39.05;21.17;;;;;;;4.26;100.00;101754.31;4977422;28;20118;-64
2022/12/05 00:15:39;;;;;;;33.75;19.48;;;;;;;4.35;100.00;101756.41;4974832;28;20093;-65
2022/12/05 00:18:06;;;;;;;36.85;19.58;;;;;;;4.31;100.00;101755.75;4978461;28;20050;-64
2022/12/05 00:20:33;;;;;;;41.20;22.83;;;;;;;4.28;100.00;101752.50;4975912;28;20046;-64
2022/12/05 00:23:00;;;;;;;42.50;21.88;;;;;;;4.29;100.00;101756.75;4977745;28;20058;-65
2022/12/05 00:25:26;;;;;;;42.03;21.42;;;;;;;4.23;100.00;101760.50;4973798;28;20078;-64
2022/12/05 00:27:53;;;;;;;41.00;21.10;;;;;;;4.19;100.00;101746.00;4986116;28;20050;-64
2022/12/05 00:30:19;;;;;;;41.35;21.10;;;;;;;4.18;100.00;101753.91;4965266;28;20131;-64
2022/12/05 00:32:46;;;;;;;41.95;21.85;;;;;;;4.18;100.00;101741.75;4976468;28;20051;-64
2022/12/05 00:35:12;;;;;;;44.63;22.30;;;;;;;4.23;100.00;101749.28;4975979;28;20058;-64
2022/12/05 00:37:38;;;;;;;46.25;23.10;;;;;;;4.22;100.00;101745.03;4976434;28;20054;-63
2022/12/05 00:40:05;;;;;;;40.15;21.95;;;;;;;4.24;100.00;101748.38;4980523;28;20058;-64
2022/12/05 00:42:32;;;;;;;47.13;24.13;;;;;;;4.24;100.00;101745.78;4970627;28;20066;-64
2022/12/05 00:44:58;;;;;;;43.75;23.10;;;;;;;4.21;100.00;101749.38;4975287;28;20051;-64
2022/12/05 00:47:24;;;;;;;48.42;22.65;;;;;;;4.29;100.00;101743.75;4978222;28;20419;-65
2022/12/05 00:49:51;;;;;;;46.25;21.42;;;;;;;4.21;100.00;101743.34;4973701;28;20130;-63
2022/12/05 00:52:17;;;;;;;44.65;22.48;;;;;;;4.20;100.00;101745.09;4978983;28;20136;-64
2022/12/05 00:54:44;;;;;;;49.67;23.38;;;;;;;4.21;100.00;101745.94;4968338;28;20081;-64
2022/12/05 00:57:10;;;;;;;45.10;23.50;;;;;;;4.22;100.00;101742.44;4979862;28;20059;-64
2022/12/05 00:59:36;;;;;;;43.00;21.83;;;;;;;4.29;100.00;101743.75;4971426;28;20479;-64
2022/12/05 01:02:03;;;;;;;45.00;22.23;;;;;;;4.26;100.00;101742.19;4978357;28;20085;-64
2022/12/05 01:04:29;;;;;;;43.35;22.02;;;;;;;4.34;100.00;101746.97;4979356;28;20053;-63
2022/12/05 01:06:57;;;;;;;47.05;22.67;;;;;;;4.35;100.00;101736.50;4970895;28;20065;-64
2022/12/05 01:09:24;;;;;;;43.17;22.67;;;;;;;4.35;100.00;101743.41;4949636;28;20565;-64
2022/12/05 01:11:51;;;;;;;45.20;21.52;;;;;;;4.33;100.00;101742.66;4965658;28;20058;-63
2022/12/05 01:14:20;;;;;;;42.05;22.40;;;;;;;4.38;100.00;101740.66;4979528;28;20059;-64
2022/12/05 01:16:49;;;;;;;41.60;21.83;;;;;;;4.39;100.00;101742.34;4983403;28;20054;-64
2022/12/05 01:19:22;;;;;;;42.78;22.08;;;;;;;4.41;100.00;101742.25;4976330;28;20230;-64
2022/12/05 01:21:48;;;;;;;43.53;20.95;;;;;;;4.40;100.00;101749.22;4979616;28;20042;-63
2022/12/05 01:24:16;;;;;;;45.25;21.10;;;;;;;4.43;100.00;101745.59;4974607;28;20101;-63
2022/12/05 01:26:43;;;;;;;41.90;21.47;;;;;;;4.44;100.00;101753.31;4976401;28;20514;-63
2022/12/05 01:29:12;;;;;;;44.50;23.17;;;;;;;4.41;100.00;101753.50;4968532;28;20083;-63
2022/12/05 01:31:39;;;;;;;46.03;23.48;;;;;;;4.34;100.00;101755.56;4977137;28;20051;-63
2022/12/05 01:34:08;;;;;;;42.63;21.77;;;;;;;4.36;100.00;101750.31;4976076;28;20138;-64
2022/12/05 01:36:35;;;;;;;44.72;21.70;;;;;;;4.33;100.00;101755.66;4981398;28;20094;-64
2022/12/05 01:39:02;;;;;;;44.30;21.85;;;;;;;4.34;100.00;101757.34;4982227;28;20065;-64
2022/12/05 01:41:33;;;;;;;43.83;22.70;;;;;;;4.33;100.00;101753.91;4968700;28;20439;-63
2022/12/05 01:44:04;;;;;;;38.65;19.70;;;;;;;4.35;100.00;101762.47;4980997;28;20479;-64
2022/12/05 01:46:34;;;;;;;43.30;22.23;;;;;;;4.35;100.00;101762.47;4975465;28;20058;-64
2022/12/05 01:49:10;;;;;;;46.30;22.45;;;;;;;4.35;100.00;101757.28;4983256;28;20476;-63
2022/12/05 01:51:40;;;;;;;47.20;23.02;;;;;;;4.34;100.00;101762.53;4971738;28;20043;-64
2022/12/05 01:54:08;;;;;;;44.03;21.95;;;;;;;4.30;100.00;101768.81;4975410;28;20057;-63
2022/12/05 01:56:35;;;;;;;40.42;21.08;;;;;;;4.27;100.00;101763.78;4982559;28;20050;-63
2022/12/05 01:59:04;;;;;;;44.35;22.30;;;;;;;4.32;100.00;101765.22;4973603;28;20089;-64
2022/12/05 02:01:31;;;;;;;46.72;22.30;;;;;;;4.29;100.00;101755.00;4981584;28;20783;-67
2022/12/05 02:03:58;;;;;;;44.08;21.40;;;;;;;4.34;100.00;101763.38;4974487;28;20147;-66
2022/12/05 02:06:26;;;;;;;41.00;21.30;;;;;;;4.34;100.00;101762.53;4980955;28;20815;-66
2022/12/05 02:08:53;;;;;;;43.53;22.50;;;;;;;4.33;100.00;101758.25;4968471;28;20053;-66
2022/12/05 02:11:22;;;;;;;39.67;20.85;;;;;;;4.33;100.00;101763.44;4983339;28;20517;-66
2022/12/05 02:13:51;;;;;;;;;;;;;;;4.35;100.00;101756.41;4986820;28;20050;-66
2022/12/05 02:16:26;;;;;;;34.13;18.73;;;;;;;4.42;100.00;101762.13;4980526;28;19930;-66
2022/12/05 02:19:16;;;;;;;36.42;19.27;;;;;;;4.49;100.00;101753.09;4984609;28;20410;-66
2022/12/05 02:22:07;;;;;;;34.45;18.88;;;;;;;4.49;100.00;101760.88;4976286;28;20050;-66
2022/12/05 02:25:12;;;;;;;40.38;20.15;;;;;;;4.42;100.00;101762.97;4981145;28;20054;-67
2022/12/05 02:27:57;;;;;;;39.50;20.02;;;;;;;4.41;100.00;101760.44;4974457;28;20051;-66
2022/12/05 02:30:25;;;;;;;39.45;20.63;;;;;;;4.38;100.00;101763.22;4978530;28;20046;-67
2022/12/05 02:33:04;;;;;;;35.47;18.95;;;;;;;4.43;100.00;101762.06;4977146;28;20153;-67
2022/12/05 02:35:45;;;;;;;38.28;20.00;;;;;;;4.41;100.00;101760.44;4980024;28;20053;-67
2022/12/05 02:38:20;;;;;;;40.38;21.15;;;;;;;4.36;100.00;101765.91;4974859;28;20694;-67
2022/12/05 02:41:14;;;;;;;30.63;17.83;;;;;;;4.46;100.00;101756.66;4984269;28;20050;-67
2022/12/05 02:43:53;;;;;;;37.35;20.23;;;;;;;4.45;100.00;101761.94;4984163;28;20490;-66
2022/12/05 02:46:22;;;;;;;41.28;20.25;;;;;;;4.47;100.00;101760.09;4986852;28;20118;-67
2022/12/05 02:48:52;;;;;;;39.42;19.70;;;;;;;4.48;100.00;101767.00;4986131;28;20459;-66
2022/12/05 02:51:21;;;;;;;41.17;20.42;;;;;;;4.53;100.00;101765.00;4977604;28;20470;-66
2022/12/05 02:53:49;;;;;;;39.95;20.60;;;;;;;4.51;100.00;101767.66;4988306;28;20046;-67
2022/12/05 02:56:16;;;;;;;34.00;17.92;;;;;;;4.52;100.00;101765.91;4983911;28;20522;-67
2022/12/05 02:58:50;;;;;;;38.33;20.88;;;;;;;4.56;100.00;101772.59;4979154;28;20050;-67
2022/12/05 03:01:20;;;;;;;41.38;22.13;;;;;;;4.52;100.00;101769.31;4978711;28;20046;-67
2022/12/05 03:03:47;;;;;;;41.53;20.73;;;;;;;4.49;100.00;101769.50;4986868;28;20054;-67
2022/12/05 03:06:22;;;;;;;38.90;19.83;;;;;;;4.56;100.00;101773.44;4971948;28;20047;-66
2022/12/05 03:08:56;;;;;;;40.65;21.67;;;;;;;4.53;100.00;101765.81;4981390;28;20054;-66
2022/12/05 03:11:23;;;;;;;35.08;20.27;;;;;;;4.49;100.00;101771.28;4984141;28;20056;-66
2022/12/05 03:13:53;;;;;;;33.30;19.30;;;;;;;4.54;100.00;101767.47;4986728;28;20054;-66
2022/12/05 03:16:30;;;;;;;39.97;19.80;;;;;;;4.60;100.00;101766.31;4984090;28;20513;-67
2022/12/05 03:19:09;;;;;;;39.58;20.02;;;;;;;4.56;100.00;101770.00;4978428;28;20697;-66
2022/12/05 03:21:46;;;;;;;37.25;19.65;;;;;;;4.60;100.00;101768.91;4986877;28;20047;-66
2022/12/05 03:24:13;;;;;;;41.08;20.98;;;;;;;4.56;100.00;101770.00;4986834;28;20054;-66
2022/12/05 03:26:49;;;;;;;31.85;18.30;;;;;;;4.58;100.00;101762.97;4990066;28;20081;-66
2022/12/05 03:29:34;;;;;;;41.47;20.60;;;;;;;4.54;100.00;101770.06;4986830;28;20050;-63
2022/12/05 03:32:17;;;;;;;38.75;19.33;;;;;;;4.59;100.00;101769.84;4979441;28;20488;-64
2022/12/05 03:35:08;;;;;;;35.35;18.83;;;;;;;4.62;100.00;101767.06;4969699;28;20462;-65
2022/12/05 03:37:54;;;;;;;37.72;20.42;;;;;;;4.65;100.00;101772.09;4977238;28;20069;-64
2022/12/05 03:40:44;;;;;;;42.17;19.73;;;;;;;4.69;100.00;101772.78;4987725;28;20463;-64
2022/12/05 03:43:17;;;;;;;35.00;19.08;;;;;;;4.71;100.00;101774.34;4980513;28;20652;-63
2022/12/05 03:45:51;;;;;;;39.90;20.10;;;;;;;4.66;100.00;101776.34;4986244;28;20843;-63
2022/12/05 03:48:32;;;;;;;37.80;20.23;;;;;;;4.69;100.00;101781.41;4968074;28;20058;-63
2022/12/05 03:51:02;;;;;;;37.13;19.83;;;;;;;4.63;100.00;101783.50;4966181;28;20050;-64
2022/12/05 03:53:40;;;;;;;34.85;18.80;;;;;;;4.65;100.00;101779.06;4980953;28;20050;-63
2022/12/05 03:56:12;;;;;;;40.40;20.88;;;;;;;4.67;100.00;101775.44;4986361;28;20471;-63
2022/12/05 03:59:01;;;;;;;40.17;20.33;;;;;;;4.67;100.00;101780.66;4986332;28;20047;-63
2022/12/05 04:01:30;;;;;;;40.50;20.90;;;;;;;4.70;100.00;101785.66;4980570;28;20818;-64
2022/12/05 04:04:03;;;;;;;37.53;19.88;;;;;;;4.69;100.00;101781.41;4983333;28;20141;-64
2022/12/05 04:06:37;;;;;;;38.05;20.02;;;;;;;4.72;100.00;101780.38;4978708;28;20367;-63
2022/12/05 04:09:08;;;;;;;38.75;19.83;;;;;;;4.73;100.00;101780.31;4988348;28;20054;-64
2022/12/05 04:11:47;;;;;;;36.95;18.73;;;;;;;4.70;100.00;101783.06;4971977;28;20901;-63
2022/12/05 04:14:20;;;;;;;40.53;19.98;;;;;;;4.72;100.00;101777.78;4974690;28;20109;-63
2022/12/05 04:17:04;;;;;;;35.20;19.35;;;;;;;4.75;100.00;101780.22;4968289;28;20131;-63
2022/12/05 04:22:38;;;;;;;30.90;17.15;;;;;;;4.76;100.00;101784.50;4978140;28;20412;-64
2022/12/05 04:28:02;;;;;;;41.85;20.70;;;;;;;4.77;100.00;101786.19;4979259;28;20046;-64
2022/12/05 04:30:37;;;;;;;39.78;20.42;;;;;;;4.79;100.00;101783.50;4978830;28;20395;-64
2022/12/05 04:33:09;;;;;;;37.83;19.85;;;;;;;4.77;100.00;101782.75;4980232;28;20054;-65
2022/12/05 04:36:00;;;;;;;36.28;19.98;;;;;;;4.76;100.00;101781.88;4980163;28;20058;-64
2022/12/05 04:38:44;;;;;;;36.20;20.38;;;;;;;4.77;100.00;101780.16;4980368;28;20422;-64
2022/12/05 04:41:18;;;;;;;38.55;19.98;;;;;;;4.70;100.00;101780.47;4980097;28;20054;-63
2022/12/05 04:43:46;;;;;;;32.30;17.98;;;;;;;4.72;100.00;101781.25;4981461;28;20567;-63
2022/12/05 04:46:15;;;;;;;36.05;19.50;;;;;;;4.73;100.00;101787.28;4973897;28;20112;-64
2022/12/05 04:48:44;;;;;;;31.42;18.70;;;;;;;4.77;100.00;101782.75;4974755;28;20046;-63
2022/12/05 04:51:16;;;;;;;33.63;18.55;;;;;;;4.78;100.00;101784.41;4982428;28;20054;-64
2022/12/05 04:53:45;;;;;;;32.90;18.33;;;;;;;4.79;100.00;101783.50;4994108;28;20054;-64
2022/12/05 04:56:16;;;;;;;36.58;19.92;;;;;;;4.79;100.00;101780.91;4977985;28;20061;-63
2022/12/05 04:58:43;;;;;;;32.90;19.02;;;;;;;4.76;100.00;101787.09;4974321;28;20064;-64
2022/12/05 05:01:15;;;;;;;32.55;17.75;;;;;;;4.70;100.00;101785.66;4970005;28;20058;-64
2022/12/05 05:03:49;;;;;;;29.90;17.85;;;;;;;4.78;100.00;101787.00;4970353;28;20045;-64
2022/12/05 05:06:16;;;;;;;30.42;18.27;;;;;;;4.75;100.00;101780.22;4981795;28;20056;-64
2022/12/05 05:09:00;;;;;;;31.52;17.67;;;;;;;4.87;100.00;101786.50;4984545;28;20058;-64
2022/12/05 05:11:30;;;;;;;30.63;17.20;;;;;;;4.84;100.00;101790.13;4981181;28;20100;-65
2022/12/05 05:13:56;;;;;;;32.05;18.52;;;;;;;4.89;100.00;101789.84;4968370;28;20401;-64
2022/12/05 05:16:35;;;;;;;30.77;18.13;;;;;;;5.00;100.00;101797.03;4975592;28;20081;-65
2022/12/05 05:19:03;;;;;;;31.15;18.48;;;;;;;4.97;100.00;101789.44;4980266;28;20076;-64
2022/12/05 05:21:32;;;;;;;35.72;18.45;;;;;;;4.98;100.00;101789.34;4979293;28;20065;-64
2022/12/05 05:23:59;;;;;;;27.95;16.92;;;;;;;4.95;100.00;101790.34;4985180;28;20689;-65
2022/12/05 05:26:27;;;;;;;33.97;19.55;;;;;;;4.98;100.00;101799.75;4975634;28;20487;-64
2022/12/05 05:28:53;;;;;;;29.88;17.70;;;;;;;4.92;100.00;101792.25;4981207;28;20109;-63
2022/12/05 05:31:20;;;;;;;34.10;17.65;;;;;;;4.94;100.00;101793.88;4982547;28;20498;-65
2022/12/05 05:33:52;;;;;;;31.77;17.42;;;;;;;4.94;100.00;101799.06;4968001;28;20058;-63
2022/12/05 05:36:20;;;;;;;28.17;16.02;;;;;;;4.94;100.00;101799.06;4987036;28;20058;-63
2022/12/05 05:38:53;;;;;;;31.50;18.08;;;;;;;4.94;100.00;101800.84;4974680;28;20439;-63
2022/12/05 05:41:26;;;;;;;28.02;16.02;;;;;;;4.95;100.00;101795.53;4980823;28;20054;-64
2022/12/05 05:43:53;;;;;;;28.95;16.88;;;;;;;4.93;100.00;101794.78;4977108;28;20089;-64
2022/12/05 05:46:22;;;;;;;28.60;16.83;;;;;;;4.96;100.00;101801.59;4983019;28;20054;-64
2022/12/05 05:48:49;;;;;;;26.60;15.18;;;;;;;4.97;100.00;101794.63;4980249;28;20062;-65
2022/12/05 05:51:17;;;;;;;27.88;16.60;;;;;;;5.01;100.00;101799.56;4978695;28;20058;-64
2022/12/05 05:53:44;;;;;;;32.53;18.17;;;;;;;5.01;100.00;101801.34;4982509;28;20057;-64
2022/12/05 05:56:13;;;;;;;29.35;16.52;;;;;;;5.03;100.00;101796.88;4976050;28;20288;-65
2022/12/05 05:58:47;;;;;;;29.98;17.73;;;;;;;4.98;100.00;101798.88;4984462;28;20081;-64
2022/12/05 06:01:16;;;;;;;27.20;15.02;;;;;;;5.03;100.00;101800.31;4972313;28;20054;-65
2022/12/05 06:03:43;;;;;;;29.25;17.30;;;;;;;5.02;100.00;101798.66;4975802;28;20467;-64
2022/12/05 06:06:12;;;;;;;29.65;16.52;;;;;;;5.03;100.00;101799.47;4980725;28;20137;-65
2022/12/05 06:08:40;;;;;;;;;;;;;;;5.02;100.00;101801.25;4969987;28;20054;-64
2022/12/05 06:11:09;;;;;;;29.98;17.08;;;;;;;5.03;100.00;101796.88;4978115;28;19922;-64
2022/12/05 06:13:35;;;;;;;28.10;17.05;;;;;;;4.98;100.00;101801.50;4979149;28;20069;-64
2022/12/05 06:16:04;;;;;;;28.98;16.55;;;;;;;5.06;100.00;101800.16;4985413;28;20047;-65
2022/12/05 06:18:31;;;;;;;29.10;17.20;;;;;;;5.03;100.00;101807.28;4978970;28;20054;-64
2022/12/05 06:20:58;;;;;;;30.42;15.02;;;;;;;5.09;100.00;101804.34;4982896;28;20050;-66
2022/12/05 06:23:25;;;;;;;31.85;18.15;;;;;;;5.08;100.00;101805.28;4978961;28;20058;-65
2022/12/05 06:25:53;;;;;;;29.25;17.15;;;;;;;5.08;100.00;101798.31;4966310;28;20050;-64
2022/12/05 06:28:23;;;;;;;24.98;15.00;;;;;;;5.02;100.00;101803.84;4976161;28;20061;-64
2022/12/05 06:30:50;;;;;;;29.13;17.48;;;;;;;4.96;100.00;101799.00;4987300;28;20054;-63
2022/12/05 06:33:17;;;;;;;29.65;17.00;;;;;;;4.98;100.00;101804.94;4991210;28;20053;-64
2022/12/05 06:35:43;;;;;;;30.35;16.75;;;;;;;5.08;100.00;101813.06;4982422;28;20059;-64
2022/12/05 06:38:10;;;;;;;31.52;18.95;;;;;;;5.07;100.00;101807.00;4978833;28;20525;-65
2022/12/05 06:40:41;;;;;;;30.40;18.30;;;;;;;5.13;100.00;101814.47;4982692;28;20495;-64
2022/12/05 06:43:08;;;;;;;32.38;17.92;;;;;;;5.10;100.00;101813.81;4978620;28;20042;-64
2022/12/05 06:45:37;;;;;;;26.30;16.35;;;;;;;5.11;100.00;101812.88;4980709;28;20105;-64
2022/12/05 06:48:03;;;;;;;30.05;17.67;;;;;;;5.01;100.00;101812.56;4977523;28;20161;-65
2022/12/05 06:50:30;;;;;;;28.17;16.65;;;;;;;5.04;100.00;101820.22;4977787;28;20046;-64
2022/12/05 06:52:56;;;;;;;29.35;17.05;;;;;;;5.05;100.00;101823.63;4966320;28;20128;-64
2022/12/05 06:55:22;;;;;;;27.13;16.52;;;;;;;5.08;100.00;101821.72;4978896;28;20517;-64
2022/12/05 06:57:49;;;;;;;28.02;17.02;;;;;;;5.09;100.00;101828.56;4985991;28;20054;-64
2022/12/05 07:03:00;;;;;;;29.13;16.55;;;;;;;5.06;100.00;101833.97;4979524;28;20514;-64
2022/12/05 07:05:27;;;;;;;30.67;18.00;;;;;;;5.06;100.00;101831.34;4975053;28;20105;-64
2022/12/05 07:07:53;;;;;;;32.10;18.02;;;;;;;5.04;100.00;101833.22;4977696;28;20080;-64
2022/12/05 07:10:19;;;;;;;31.80;18.00;;;;;;;5.04;100.00;101843.59;4980203;28;20129;-63
2022/12/05 07:12:46;;;;;;;29.98;16.83;;;;;;;5.06;100.00;101835.72;4984016;28;20058;-64
2022/12/05 07:15:12;;;;;;;32.60;18.15;;;;;;;5.05;100.00;101841.84;4987617;28;20055;-64
2022/12/05 07:17:39;;;;;;;27.38;16.95;;;;;;;5.06;100.00;101835.72;4981794;28;20146;-64
2022/12/05 07:20:06;;;;;;;26.27;15.98;;;;;;;5.12;100.00;101837.97;4982787;28;20062;-63
2022/12/05 07:22:35;;;;;;;28.48;16.38;;;;;;;5.12;100.00;101835.38;4974836;28;20745;-63
2022/12/05 07:25:02;;;;;;;27.27;16.52;;;;;;;5.13;100.00;101837.88;4978210;28;20043;-65
2022/12/05 07:27:28;;;;;;;29.33;16.70;;;;;;;5.11;100.00;101837.13;4969375;28;20046;-63
2022/12/05 07:29:55;;;;;;;26.15;15.95;;;;;;;5.14;100.00;101836.97;4983748;28;20046;-65
2022/12/05 07:32:22;;;;;;;26.50;14.82;;;;;;;5.15;100.00;101841.25;4982813;28;20046;-65
2022/12/05 07:34:49;;;;;;;27.52;16.98;;;;;;;5.13;100.00;101842.25;4977009;28;20062;-64
2022/12/05 07:37:20;;;;;;;24.67;15.25;;;;;;;5.13;100.00;101848.28;4979019;28;20146;-63
2022/12/05 07:39:47;;;;;;;26.52;16.55;;;;;;;5.10;100.00;101847.63;4973855;28;20058;-64
2022/12/05 07:42:13;;;;;;;24.90;15.18;;;;;;;5.09;100.00;101854.56;4985469;28;20092;-65
2022/12/05 07:44:39;;;;;;;24.88;13.98;;;;;;;5.14;100.00;101857.78;4985732;28;20516;-64
2022/12/05 07:47:06;;;;;;;30.27;16.80;;;;;;;5.11;100.00;101859.69;4980784;28;20060;-64
2022/12/05 07:49:33;;;;;;;23.63;15.40;;;;;;;5.13;100.00;101865.66;4973400;28;20180;-64
2022/12/05 07:51:59;;;;;;;24.90;16.10;;;;;;;5.17;100.00;101866.31;4972554;28;20054;-64
2022/12/05 07:54:26;;;;;;;23.83;15.57;;;;;;;5.14;100.00;101869.94;4977268;28;20053;-63
2022/12/05 07:56:52;;;;;;;24.13;15.68;;;;;;;5.13;100.00;101866.47;4973163;28;20683;-64
2022/12/05 07:59:19;;;;;;;23.45;15.18;;;;;;;5.15;100.00;101859.47;4971056;28;20158;-64
2022/12/05 08:01:45;;;;;;;25.08;15.93;;;;;;;5.18;100.00;101868.03;4964778;28;20514;-64
2022/12/05 08:04:11;;;;;;;29.77;18.35;;;;;;;5.20;100.00;101868.78;4960615;28;20133;-64
2022/12/05 08:06:41;;;;;;;25.98;16.02;;;;;;;5.17;100.00;101872.34;4984480;28;20541;-65
2022/12/05 08:09:07;;;;;;;25.23;16.15;;;;;;;5.18;100.00;101868.03;4977552;28;20050;-63
2022/12/05 08:11:34;;;;;;;23.77;15.40;;;;;;;5.16;100.00;101875.91;4984630;28;20066;-65
2022/12/05 08:14:03;;;;;;;21.67;13.95;;;;;;;5.19;100.00;101873.09;4975651;28;20566;-64
2022/12/05 08:16:31;;;;;;;21.52;14.45;;;;;;;5.21;100.00;101873.88;4976349;28;20069;-64
2022/12/05 08:19:04;;;;;;;24.50;15.15;;;;;;;5.21;100.00;101879.06;4980332;28;20491;-63
2022/12/05 08:21:30;;;;;;;24.15;14.77;;;;;;;5.15;100.00;101880.28;4973216;28;20054;-63
2022/12/05 08:23:57;;;;;;;24.63;15.60;;;;;;;5.13;100.00;101884.69;4971908;28;20053;-63
2022/12/05 08:26:26;;;;;;;23.92;14.85;;;;;;;5.17;100.00;101876.72;4978934;28;20054;-64
2022/12/05 08:28:56;;;;;;;23.88;15.27;;;;;;;5.17;100.00;101887.13;4986370;28;20642;-64
2022/12/05 08:31:24;;;;;;;27.15;16.63;;;;;;;5.19;100.00;101890.50;4974273;28;20058;-65
2022/12/05 08:33:51;;;;;;;26.42;16.48;;;;;;;5.20;100.00;101893.00;4962720;28;20565;-63
2022/12/05 08:36:24;;;;;;;27.38;16.70;;;;;;;5.19;100.00;101895.69;4978519;28;20060;-65
2022/12/05 08:38:55;;;;;;;26.92;16.83;;;;;;;5.23;100.00;101897.19;4971311;28;20420;-64
2022/12/05 08:41:27;;;;;;;30.27;17.25;;;;;;;5.21;100.00;101899.88;4986460;28;20766;-63
2022/12/05 08:43:54;;;;;;;31.13;17.77;;;;;;;5.25;100.00;101903.16;4974037;28;20142;-64
2022/12/05 08:46:21;;;;;;;28.92;17.75;;;;;;;5.24;100.00;101904.09;4974062;28;20059;-63
2022/12/05 08:48:47;;;;;;;28.23;16.63;;;;;;;5.27;100.00;101899.56;4976887;28;20112;-63
2022/12/05 08:51:14;;;;;;;26.88;17.27;;;;;;;5.29;100.00;101908.13;4987769;28;20545;-64
2022/12/05 08:53:40;;;;;;;28.67;17.60;;;;;;;5.30;100.00;101908.94;4986940;28;20057;-63
2022/12/05 08:56:11;;;;;;;28.30;16.70;;;;;;;5.33;100.00;101906.16;4979178;28;20058;-63
2022/12/05 08:58:37;;;;;;;29.02;18.40;;;;;;;5.24;100.00;101904.91;4982788;28;20050;-64
2022/12/05 09:01:12;;;;;;;28.95;17.88;;;;;;;5.32;100.00;101907.09;4956335;28;20339;-65
2022/12/05 09:03:40;;;;;;;30.83;18.05;;;;;;;5.29;100.00;101904.66;4966747;28;20046;-65
2022/12/05 09:06:14;;;;;;;29.50;18.00;;;;;;;5.30;100.00;101911.56;4978392;28;20483;-65
2022/12/05 09:08:41;;;;;;;32.78;18.30;;;;;;;5.30;100.00;101909.78;4982348;28;20101;-64
2022/12/05 09:11:17;;;;;;;30.05;17.20;;;;;;;5.32;100.00;101907.94;4984300;28;20054;-64
2022/12/05 09:13:44;;;;;;;35.55;18.98;;;;;;;5.29;100.00;101908.13;4973860;28;20093;-65
2022/12/05 09:16:16;;;;;;;31.77;18.15;;;;;;;5.34;100.00;101913.06;4979607;28;20058;-65
2022/12/05 09:18:44;;;;;;;27.45;15.90;;;;;;;5.32;100.00;101918.34;4978089;28;20074;-64
2022/12/05 09:21:11;;;;;;;31.05;18.63;;;;;;;5.34;100.00;101919.09;4983078;28;20123;-65
2022/12/05 09:23:38;;;;;;;28.98;18.05;;;;;;;5.38;100.00;101921.53;4977276;28;20062;-65
2022/12/05 09:26:06;;;;;;;31.63;17.48;;;;;;;5.39;100.00;101918.00;4980838;28;20058;-64
2022/12/05 09:28:34;;;;;;;28.17;17.38;;;;;;;5.35;100.00;101923.38;4976716;28;20058;-65
2022/12/05 09:31:02;;;;;;;29.00;17.73;;;;;;;5.39;100.00;101933.59;4977910;28;20085;-65
2022/12/05 09:33:31;;;;;;;31.48;17.45;;;;;;;5.40;100.00;101930.91;4983287;28;20046;-66
2022/12/05 09:35:57;;;;;;;30.60;17.92;;;;;;;5.36;100.00;101929.41;4977973;28;20050;-64
2022/12/05 09:38:23;;;;;;;30.17;16.65;;;;;;;5.32;100.00;101935.72;4980910;28;20077;-67
2022/12/05 09:40:59;;;;;;;26.40;17.60;;;;;;;5.40;100.00;101932.69;4977098;28;20072;-65
2022/12/05 09:43:35;;;;;;;30.08;17.83;;;;;;;5.40;100.00;101941.34;4986213;28;20442;-65
2022/12/05 09:46:17;;;;;;;30.60;17.88;;;;;;;5.38;100.00;101937.97;4973494;28;20093;-66
2022/12/05 09:48:44;;;;;;;29.85;18.30;;;;;;;5.33;100.00;101950.38;4979376;28;20560;-65
2022/12/05 09:51:11;;;;;;;28.58;17.38;;;;;;;5.37;100.00;101951.06;4980488;28;20117;-65
2022/12/05 09:53:41;;;;;;;27.52;16.88;;;;;;;5.40;100.00;101950.91;4972036;28;20066;-65
2022/12/05 09:56:08;;;;;;;28.35;16.40;;;;;;;5.38;100.00;101948.38;4982882;28;20054;-65
2022/12/05 09:58:43;;;;;;;26.73;16.40;;;;;;;5.41;100.00;101949.97;4977472;28;20054;-65
2022/12/05 10:01:42;;;;;;;28.70;17.15;;;;;;;5.42;100.00;101952.50;4974540;28;20054;-65
2022/12/05 10:04:32;;;;;;;28.20;16.83;;;;;;;5.46;100.00;101946.19;4978131;28;20648;-65
2022/12/05 10:07:29;;;;;;;28.67;17.95;;;;;;;5.42;100.00;101944.69;4972850;28;20141;-65
2022/12/05 10:10:14;;;;;;;30.98;17.98;;;;;;;5.39;100.00;101941.41;4977064;28;20125;-65
2022/12/05 10:13:02;;;;;;;27.83;16.73;;;;;;;5.38;100.00;101937.16;4981906;28;20058;-66
2022/12/05 10:15:41;;;;;;;29.02;17.85;;;;;;;5.44;100.00;101940.22;4983307;28;20497;-65
2022/12/05 10:18:26;;;;;;;30.83;18.02;;;;;;;5.49;100.00;101937.38;4960309;28;20058;-65
2022/12/05 10:21:01;;;;;;;29.20;17.83;;;;;;;5.49;100.00;101938.22;4971207;28;20466;-65
2022/12/05 10:23:40;;;;;;;28.90;17.83;;;;;;;5.52;100.00;101934.59;4972305;28;20100;-64
2022/12/05 10:26:28;;;;;;;26.55;16.70;;;;;;;5.56;100.00;101943.91;4980364;28;20050;-64
2022/12/05 10:29:27;;;;;;;28.40;17.40;;;;;;;5.57;100.00;101940.41;4976817;28;20054;-65
2022/12/05 10:32:04;;;;;;;30.50;18.48;;;;;;;5.54;100.00;101940.56;4980782;28;20061;-66
2022/12/05 10:34:37;;;;;;;27.48;16.27;;;;;;;5.55;100.00;101942.25;4980943;28;20151;-64
2022/12/05 10:37:12;;;;;;;27.15;17.52;;;;;;;5.59;100.00;101935.13;4976124;28;20474;-65
2022/12/05 10:39:39;;;;;;;29.50;17.90;;;;;;;5.54;100.00;101935.34;4980791;28;20089;-64
2022/12/05 10:42:12;;;;;;;26.05;15.77;;;;;;;5.55;100.00;101931.84;4986105;28;20072;-64
2022/12/05 10:44:39;;;;;;;29.75;16.75;;;;;;;5.54;100.00;101936.19;4984336;28;20738;-64
2022/12/05 10:47:06;;;;;;;25.48;16.27;;;;;;;5.56;100.00;101936.09;4976574;28;20062;-65
2022/12/05 10:49:33;;;;;;;27.10;17.55;;;;;;;5.61;100.00;101933.25;4984577;28;20054;-64
2022/12/05 10:52:00;;;;;;;31.77;18.93;;;;;;;5.61;100.00;101928.06;4980206;28;20047;-64
2022/12/05 10:54:42;;;;;;;29.83;16.33;;;;;;;5.60;100.00;101926.38;4986558;28;20078;-64
2022/12/05 10:57:24;;;;;;;27.77;16.20;;;;;;;5.64;100.00;101918.28;4974740;28;20054;-64
2022/12/05 10:59:51;;;;;;;25.73;16.67;;;;;;;5.63;100.00;101921.81;4987277;28;20069;-66
2022/12/05 11:02:28;;;;;;;22.80;15.20;;;;;;;5.69;100.00;101923.25;4982046;28;20418;-66
2022/12/05 11:04:55;;;;;;;23.55;15.43;;;;;;;5.68;100.00;101921.56;4978389;28;20054;-65
2022/12/05 11:07:30;;;;;;;21.67;14.52;;;;;;;5.62;100.00;101914.94;4986120;28;20046;-64
2022/12/05 11:09:59;;;;;;;19.98;13.27;;;;;;;5.69;100.00;101913.66;4979920;28;20054;-65
2022/12/05 11:12:37;;;;;;;22.63;14.20;;;;;;;5.73;100.00;101916.94;4986577;28;20050;-65
2022/12/05 11:15:05;;;;;;;22.77;13.90;;;;;;;5.69;100.00;101911.06;4976741;28;20050;-64
2022/12/05 11:17:37;;;;;;;19.60;13.20;;;;;;;5.74;100.00;101919.47;4982531;28;20057;-64
2022/12/05 11:20:19;;;;;;;21.85;14.00;;;;;;;5.71;100.00;101909.19;4974313;28;20347;-65
2022/12/05 11:22:48;;;;;;;19.45;12.98;;;;;;;5.69;100.00;101918.03;4984960;28;20852;-64
2022/12/05 11:25:29;;;;;;;19.33;12.32;;;;;;;5.72;100.00;101917.84;4986234;28;20066;-64
2022/12/05 11:27:58;;;;;;;18.15;12.20;;;;;;;5.72;100.00;101913.50;4970931;28;20459;-63
2022/12/05 11:30:28;;;;;;;19.23;11.55;;;;;;;5.73;100.00;101916.94;4972527;28;20133;-64
2022/12/05 11:33:21;;;;;;;19.20;12.77;;;;;;;5.79;100.00;101915.75;4974596;28;20047;-65
2022/12/05 11:35:50;;;;;;;15.73;10.82;;;;;;;5.77;100.00;101915.81;4985364;28;20280;-63